createdAt,value
2018-03-15T00:01:05.643Z,36.88
2018-03-15T00:03:33.725Z,34.25
2018-03-15T00:05:59.840Z,31.77
2018-03-15T00:08:25.956Z,30.60
2018-03-15T00:10:52.032Z,32.47
2018-03-15T00:13:18.137Z,31.92
2018-03-15T00:15:44.228Z,37.30
2018-03-15T00:18:11.063Z,39.50
2018-03-15T00:20:37.132Z,34.40
2018-03-15T00:23:03.968Z,37.22
2018-03-15T00:25:30.811Z,38.10
2018-03-15T00:27:56.876Z,35.65
2018-03-15T00:30:23.721Z,32.42
2018-03-15T00:32:50.628Z,31.37
2018-03-15T00:35:16.706Z,39.15
2018-03-15T00:37:42.812Z,32.08
2018-03-15T00:40:08.885Z,43.63
2018-03-15T00:42:34.972Z,34.55
2018-03-15T00:45:01.058Z,31.75
2018-03-15T00:47:27.161Z,35.55
2018-03-15T00:49:53.229Z,34.60
2018-03-15T00:52:19.323Z,32.45
2018-03-15T00:54:45.395Z,34.17
2018-03-15T00:57:11.499Z,30.88
2018-03-15T00:59:37.616Z,29.40
2018-03-15T01:02:03.716Z,30.45
2018-03-15T01:04:29.814Z,35.67
2018-03-15T01:06:55.908Z,34.40
2018-03-15T01:09:22.735Z,35.42
2018-03-15T01:11:48.833Z,28.08
2018-03-15T01:14:14.887Z,30.83
2018-03-15T01:16:40.949Z,33.03
2018-03-15T01:19:07.032Z,31.37
2018-03-15T01:21:33.104Z,35.30
2018-03-15T01:23:59.268Z,34.08
2018-03-15T01:26:25.331Z,31.23
2018-03-15T01:28:52.159Z,38.85
2018-03-15T01:31:18.345Z,36.25
2018-03-15T01:33:44.476Z,33.25
2018-03-15T01:36:10.576Z,47.45
2018-03-15T01:38:36.651Z,47.38
2018-03-15T01:41:02.751Z,40.75
2018-03-15T01:43:28.811Z,44.97
2018-03-15T01:45:55.667Z,41.08
2018-03-15T01:48:22.481Z,51.10
2018-03-15T01:50:48.597Z,61.90
2018-03-15T01:53:14.672Z,58.30
2018-03-15T01:55:40.783Z,55.72
2018-03-15T01:58:06.895Z,50.95
2018-03-15T02:00:32.969Z,47.92
2018-03-15T02:02:59.073Z,37.28
2018-03-15T02:05:25.286Z,42.85
2018-03-15T02:07:52.102Z,44.72
2018-03-15T02:10:18.197Z,40.95
2018-03-15T02:12:44.309Z,47.95
2018-03-15T02:15:10.410Z,42.17
2018-03-15T02:17:36.523Z,39.97
2018-03-15T02:20:02.633Z,38.60
2018-03-15T02:22:29.466Z,36.10
2018-03-15T02:24:55.567Z,36.00
2018-03-15T02:27:21.645Z,43.38
2018-03-15T02:29:47.734Z,49.28
2018-03-15T02:32:13.803Z,53.83
2018-03-15T02:34:39.911Z,43.55
2018-03-15T02:37:05.993Z,44.47
2018-03-15T02:39:32.102Z,53.70
2018-03-15T02:41:58.180Z,53.10
2018-03-15T02:44:24.287Z,56.80
2018-03-15T02:46:50.362Z,41.97
2018-03-15T02:49:17.151Z,56.15
2018-03-15T02:51:43.238Z,64.25
2018-03-15T02:54:09.286Z,71.87
2018-03-15T02:56:35.326Z,86.65
2018-03-15T02:59:02.151Z,90.40
2018-03-15T03:01:28.202Z,79.62
2018-03-15T03:03:54.299Z,112.00
2018-03-15T03:06:20.365Z,84.25
2018-03-15T03:08:46.418Z,73.65
2018-03-15T03:11:12.498Z,64.05
2018-03-15T03:13:38.587Z,59.67
2018-03-15T03:16:04.682Z,68.00
2018-03-15T03:18:30.762Z,46.15
2018-03-15T03:20:56.808Z,45.83
2018-03-15T03:23:22.849Z,63.75
2018-03-15T03:25:48.946Z,55.63
2018-03-15T03:28:15.015Z,52.10
2018-03-15T03:30:41.041Z,60.22
2018-03-15T03:33:07.109Z,59.28
2018-03-15T03:35:33.918Z,53.28
2018-03-15T03:38:00.027Z,52.67
2018-03-15T03:40:26.076Z,41.20
2018-03-15T03:42:52.177Z,53.80
2018-03-15T03:45:18.962Z,41.78
2018-03-15T03:47:45.007Z,51.78
2018-03-15T03:50:11.115Z,45.58
2018-03-15T03:52:37.166Z,41.30
2018-03-15T03:55:03.273Z,46.97
2018-03-15T03:57:30.089Z,39.65
2018-03-15T03:59:56.154Z,38.38
2018-03-15T04:02:22.241Z,42.45
2018-03-15T04:04:48.298Z,43.30
2018-03-15T04:07:14.342Z,45.85
2018-03-15T04:09:40.397Z,48.50
2018-03-15T04:12:06.457Z,48.28
2018-03-15T04:14:33.273Z,58.10
2018-03-15T04:16:59.322Z,38.25
2018-03-15T04:19:25.410Z,37.92
2018-03-15T04:21:51.464Z,36.60
2018-03-15T04:24:17.513Z,33.20
2018-03-15T04:26:43.585Z,37.53
2018-03-15T04:29:09.633Z,38.53
2018-03-15T04:31:36.462Z,38.75
2018-03-15T04:34:02.526Z,39.75
2018-03-15T04:36:29.356Z,33.53
2018-03-15T04:38:55.405Z,31.50
2018-03-15T04:41:21.492Z,34.13
2018-03-15T04:43:47.593Z,33.60
2018-03-15T04:46:14.403Z,36.70
2018-03-15T04:48:40.506Z,37.90
2018-03-15T04:51:06.574Z,37.17
2018-03-15T04:53:33.531Z,39.50
2018-03-15T04:55:59.602Z,42.95
2018-03-15T04:58:25.706Z,44.30
2018-03-15T05:00:51.787Z,35.92
2018-03-15T05:03:18.626Z,34.05
2018-03-15T05:05:44.759Z,29.12
2018-03-15T05:08:10.826Z,35.97
2018-03-15T05:10:37.646Z,39.25
2018-03-15T05:13:03.734Z,33.40
2018-03-15T05:15:29.841Z,36.28
2018-03-15T05:17:55.918Z,42.88
2018-03-15T05:20:22.123Z,39.40
2018-03-15T05:22:48.970Z,33.58
2018-03-15T05:25:15.018Z,28.48
2018-03-15T05:27:41.902Z,33.05
2018-03-15T05:30:07.978Z,33.50
2018-03-15T05:32:34.074Z,31.83
2018-03-15T05:35:00.124Z,36.30
2018-03-15T05:37:26.179Z,34.67
2018-03-15T05:39:52.254Z,34.05
2018-03-15T05:42:18.293Z,31.20
2018-03-15T05:44:45.118Z,35.65
2018-03-15T05:47:11.216Z,36.03
2018-03-15T05:49:37.338Z,38.83
2018-03-15T05:52:04.123Z,44.50
2018-03-15T05:54:30.256Z,48.67
2018-03-15T05:56:56.302Z,41.25
2018-03-15T05:59:22.382Z,44.63
2018-03-15T06:01:48.466Z,43.38
2018-03-15T06:04:14.566Z,55.85
2018-03-15T06:06:41.450Z,42.00
2018-03-15T06:09:07.514Z,44.88
2018-03-15T06:11:33.717Z,51.90
2018-03-15T06:13:59.641Z,68.15
2018-03-15T06:16:26.470Z,62.42
2018-03-15T06:18:52.526Z,46.53
2018-03-15T06:21:19.350Z,42.25
2018-03-15T06:23:45.395Z,30.75
2018-03-15T06:26:11.479Z,37.55
2018-03-15T06:28:37.571Z,32.97
2018-03-15T06:31:03.734Z,40.28
2018-03-15T06:33:30.618Z,39.30
2018-03-15T06:35:56.726Z,35.45
2018-03-15T06:38:22.893Z,38.00
2018-03-15T06:40:48.937Z,28.70
2018-03-15T06:43:15.014Z,31.73
2018-03-15T06:45:41.058Z,37.72
2018-03-15T06:48:07.144Z,36.33
2018-03-15T06:50:33.234Z,30.83
2018-03-15T06:52:59.404Z,37.15
2018-03-15T06:55:26.261Z,36.33
2018-03-15T06:57:52.286Z,30.75
2018-03-15T07:00:19.121Z,37.35
2018-03-15T07:02:45.182Z,34.03
2018-03-15T07:05:12.009Z,31.48
2018-03-15T07:07:38.062Z,29.25
2018-03-15T07:10:04.222Z,37.38
2018-03-15T07:12:30.303Z,35.38
2018-03-15T07:14:56.382Z,39.65
2018-03-15T07:17:23.237Z,28.90
2018-03-15T07:19:50.073Z,31.42
2018-03-15T07:22:16.113Z,38.40
2018-03-15T07:24:42.294Z,36.78
2018-03-15T07:27:08.350Z,30.42
2018-03-15T07:29:34.424Z,28.77
2018-03-15T07:32:00.501Z,32.15
2018-03-15T07:34:26.597Z,28.48
2018-03-15T07:36:52.645Z,26.48
2018-03-15T07:39:18.730Z,28.48
2018-03-15T07:41:44.814Z,28.62
2018-03-15T07:44:10.939Z,29.25
2018-03-15T07:46:36.997Z,32.72
2018-03-15T07:49:03.233Z,28.60
2018-03-15T07:51:29.410Z,30.70
2018-03-15T07:53:55.494Z,25.12
2018-03-15T07:56:21.607Z,34.17
2018-03-15T07:58:47.699Z,34.10
2018-03-15T08:01:14.535Z,36.03
2018-03-15T08:03:40.585Z,30.23
2018-03-15T08:06:06.674Z,32.95
2018-03-15T08:08:32.722Z,24.63
2018-03-15T08:10:58.799Z,26.67
2018-03-15T08:13:24.882Z,22.05
2018-03-15T08:15:50.961Z,26.80
2018-03-15T08:18:17.031Z,22.40
2018-03-15T08:20:43.864Z,21.02
2018-03-15T08:23:09.911Z,20.90
2018-03-15T08:25:36.706Z,21.20
2018-03-15T08:28:02.807Z,33.88
2018-03-15T08:30:29.602Z,26.40
2018-03-15T08:32:55.685Z,22.70
2018-03-15T08:35:21.775Z,20.55
2018-03-15T08:37:47.814Z,27.55
2018-03-15T08:40:13.907Z,22.37
2018-03-15T08:42:40.777Z,22.58
2018-03-15T08:45:06.841Z,20.85
2018-03-15T08:47:33.650Z,24.48
2018-03-15T08:50:00.519Z,30.08
2018-03-15T08:52:27.343Z,25.17
2018-03-15T08:54:53.446Z,28.17
2018-03-15T08:57:19.526Z,19.10
2018-03-15T08:59:45.675Z,23.42
2018-03-15T09:02:12.492Z,24.80
2018-03-15T09:04:39.218Z,19.37
2018-03-15T09:07:04.678Z,16.83
2018-03-15T09:09:30.773Z,18.62
2018-03-15T09:11:56.881Z,21.92
2018-03-15T09:14:22.974Z,26.45
2018-03-15T09:16:49.822Z,19.23
2018-03-15T09:19:15.932Z,16.85
2018-03-15T09:21:42.018Z,21.55
2018-03-15T09:24:08.128Z,17.60
2018-03-15T09:26:34.197Z,20.00
2018-03-15T09:29:00.341Z,18.65
2018-03-15T09:31:26.387Z,22.17
2018-03-15T09:33:52.511Z,21.30
2018-03-15T09:36:18.593Z,20.55
2018-03-15T09:38:44.707Z,20.45
2018-03-15T09:41:10.826Z,18.45
2018-03-15T09:43:36.911Z,22.17
2018-03-15T09:46:03.086Z,21.25
2018-03-15T09:48:29.118Z,20.88
2018-03-15T09:50:55.262Z,21.77
2018-03-15T09:53:21.371Z,23.25
2018-03-15T09:55:47.474Z,19.95
2018-03-15T09:58:13.590Z,20.17
2018-03-15T10:00:39.675Z,19.70
2018-03-15T10:03:05.790Z,17.90
2018-03-15T10:05:31.919Z,15.68
2018-03-15T10:07:58.054Z,17.15
2018-03-15T10:10:24.171Z,18.45
2018-03-15T10:12:50.262Z,16.85
2018-03-15T10:15:16.377Z,21.20
2018-03-15T10:17:42.502Z,16.50
2018-03-15T10:20:08.615Z,17.87
2018-03-15T10:22:34.728Z,19.52
2018-03-15T10:25:00.813Z,15.85
2018-03-15T10:27:26.953Z,16.85
2018-03-15T10:29:53.042Z,16.60
2018-03-15T10:32:19.165Z,17.40
2018-03-15T10:34:46.073Z,14.77
2018-03-15T10:37:12.876Z,16.95
2018-03-15T10:39:39.702Z,16.55
2018-03-15T10:42:05.827Z,14.05
2018-03-15T10:44:31.913Z,18.10
2018-03-15T10:46:58.769Z,16.73
2018-03-15T10:49:25.603Z,18.37
2018-03-15T10:51:51.719Z,15.32
2018-03-15T10:54:17.815Z,15.50
2018-03-15T10:56:44.681Z,15.80
2018-03-15T10:59:10.799Z,15.20
2018-03-15T11:01:43.101Z,14.82
2018-03-15T11:04:09.978Z,16.60
2018-03-15T11:06:41.018Z,16.65
2018-03-15T11:09:13.106Z,17.98
2018-03-15T11:11:39.210Z,15.32
2018-03-15T11:14:05.277Z,16.40
2018-03-15T11:16:32.111Z,16.92
2018-03-15T11:18:58.170Z,15.80
2018-03-15T11:21:24.278Z,14.07
2018-03-15T11:23:50.412Z,12.13
2018-03-15T11:26:16.453Z,13.85
2018-03-15T11:28:42.514Z,14.10
2018-03-15T11:31:08.621Z,10.65
2018-03-15T11:33:34.686Z,14.43
2018-03-15T11:36:00.786Z,12.13
2018-03-15T11:38:27.591Z,15.23
2018-03-15T11:40:53.638Z,23.60
2018-03-15T11:43:19.749Z,22.03
2018-03-15T11:45:45.866Z,13.40
2018-03-15T11:48:12.702Z,10.67
2018-03-15T11:50:38.820Z,13.17
2018-03-15T11:53:04.875Z,14.60
2018-03-15T11:55:30.994Z,11.80
2018-03-15T11:57:57.088Z,13.80
2018-03-15T12:00:23.146Z,12.40
2018-03-15T12:02:49.222Z,13.43
2018-03-15T12:05:15.311Z,14.23
2018-03-15T12:07:41.436Z,11.60
2018-03-15T12:10:07.484Z,10.87
2018-03-15T12:12:33.542Z,11.37
2018-03-15T12:14:59.631Z,9.87
2018-03-15T12:17:26.435Z,13.90
2018-03-15T12:19:53.269Z,12.63
2018-03-15T12:22:19.358Z,11.07
2018-03-15T12:24:45.442Z,11.23
2018-03-15T12:27:11.508Z,11.47
2018-03-15T12:29:37.602Z,9.83
2018-03-15T12:32:04.399Z,16.23
2018-03-15T12:34:30.481Z,11.33
2018-03-15T12:36:56.526Z,10.37
2018-03-15T12:39:23.358Z,10.30
2018-03-15T12:41:49.406Z,13.00
2018-03-15T12:44:15.466Z,11.40
2018-03-15T12:46:42.285Z,11.27
2018-03-15T12:49:08.369Z,13.50
2018-03-15T12:51:34.456Z,11.00
2018-03-15T12:54:00.538Z,11.47
2018-03-15T12:56:26.630Z,14.07
2018-03-15T12:58:52.689Z,11.30
2018-03-15T13:01:19.608Z,13.73
2018-03-15T13:03:45.666Z,11.90
2018-03-15T13:06:11.754Z,14.10
2018-03-15T13:08:37.819Z,15.10
2018-03-15T13:11:03.905Z,28.03
2018-03-15T13:13:30.714Z,20.37
2018-03-15T13:15:56.767Z,20.13
2018-03-15T13:18:22.854Z,11.17
2018-03-15T13:20:49.011Z,11.03
2018-03-15T13:23:15.128Z,17.67
2018-03-15T13:25:41.191Z,15.00
2018-03-15T13:28:07.274Z,13.73
2018-03-15T13:30:33.350Z,14.63
2018-03-15T13:32:59.462Z,16.80
2018-03-15T13:35:26.358Z,16.77
2018-03-15T13:37:52.894Z,17.93
2018-03-15T13:40:18.962Z,16.07
2018-03-15T13:42:45.055Z,15.67
2018-03-15T13:45:11.159Z,12.07
2018-03-15T13:47:37.238Z,10.13
2018-03-15T13:50:03.358Z,9.17
2018-03-15T13:52:30.231Z,10.30
2018-03-15T13:54:56.302Z,11.60
2018-03-15T13:57:22.414Z,8.00
2018-03-15T13:59:48.537Z,12.87
2018-03-15T14:02:15.365Z,12.70
2018-03-15T14:04:41.502Z,13.43
2018-03-15T14:07:07.627Z,10.90
2018-03-15T14:09:33.701Z,11.60
2018-03-15T14:12:00.517Z,10.20
2018-03-15T14:14:26.651Z,10.20
2018-03-15T14:16:52.726Z,13.10
2018-03-15T14:19:19.553Z,11.50
2018-03-15T14:21:45.687Z,16.77
2018-03-15T14:24:11.758Z,12.40
2018-03-15T14:26:37.866Z,11.83
2018-03-15T14:29:03.980Z,10.63
2018-03-15T14:31:30.102Z,14.70
2018-03-15T14:33:56.171Z,13.87
2018-03-15T14:36:22.326Z,12.07
2018-03-15T14:38:48.416Z,13.33
2018-03-15T14:41:14.499Z,13.20
2018-03-15T14:43:40.609Z,12.80
2018-03-15T14:46:06.690Z,9.37
2018-03-15T14:48:32.830Z,14.60
2018-03-15T14:50:58.918Z,13.20
2018-03-15T14:53:25.078Z,12.43
2018-03-15T14:55:51.194Z,12.47
2018-03-15T14:58:17.250Z,14.43
2018-03-15T15:00:43.337Z,13.67
2018-03-15T15:03:10.242Z,13.07
2018-03-15T15:05:36.322Z,13.47
2018-03-15T15:08:02.406Z,13.83
2018-03-15T15:10:28.466Z,17.23
2018-03-15T15:12:54.554Z,13.90
2018-03-15T15:15:21.366Z,14.00
2018-03-15T15:17:47.414Z,15.07
2018-03-15T15:20:13.520Z,16.97
2018-03-15T15:22:39.593Z,17.87
2018-03-15T15:25:05.793Z,14.70
2018-03-15T15:27:31.884Z,14.33
2018-03-15T15:29:57.904Z,14.67
2018-03-15T15:32:24.093Z,12.00
2018-03-15T15:34:50.329Z,13.27
2018-03-15T15:37:16.454Z,15.50
2018-03-15T15:39:42.563Z,17.30
2018-03-15T15:42:08.643Z,15.47
2018-03-15T15:44:34.754Z,17.17
2018-03-15T15:47:01.642Z,17.30
2018-03-15T15:49:27.763Z,13.20
2018-03-15T15:51:53.926Z,15.60
2018-03-15T15:54:20.039Z,17.47
2018-03-15T15:56:46.866Z,15.23
2018-03-15T15:59:12.987Z,15.40
2018-03-15T16:01:39.086Z,16.65
2018-03-15T16:04:05.171Z,14.10
2018-03-15T16:06:31.294Z,15.73
2018-03-15T16:08:57.385Z,14.87
2018-03-15T16:11:24.237Z,16.07
2018-03-15T16:13:51.145Z,17.23
2018-03-15T16:16:17.263Z,16.23
2018-03-15T16:18:43.342Z,13.50
2018-03-15T16:21:09.462Z,17.45
2018-03-15T16:23:35.586Z,14.05
2018-03-15T16:26:01.774Z,16.05
2018-03-15T16:28:28.685Z,16.52
2018-03-15T16:30:54.814Z,16.80
2018-03-15T16:33:20.974Z,20.08
2018-03-15T16:35:47.090Z,15.00
2018-03-15T16:38:13.259Z,16.67
2018-03-15T16:40:39.378Z,12.98
2018-03-15T16:43:05.572Z,16.17
2018-03-15T16:45:31.648Z,14.85
2018-03-15T16:47:57.751Z,16.05
2018-03-15T16:50:24.570Z,14.75
2018-03-15T16:52:50.844Z,14.30
2018-03-15T16:55:17.775Z,13.75
2018-03-15T16:57:43.886Z,19.80
2018-03-15T17:00:10.021Z,22.20
2018-03-15T17:02:36.134Z,24.87
2018-03-15T17:05:02.226Z,22.08
2018-03-15T17:07:28.313Z,15.90
2018-03-15T17:09:54.434Z,22.75
2018-03-15T17:12:21.258Z,27.73
2018-03-15T17:14:47.377Z,32.90
2018-03-15T17:17:13.490Z,38.67
2018-03-15T17:19:39.638Z,25.05
2018-03-15T17:22:05.803Z,24.08
2018-03-15T17:24:31.917Z,19.10
2018-03-15T17:26:58.109Z,17.45
2018-03-15T17:29:24.291Z,18.48
2018-03-15T17:31:50.436Z,20.95
2018-03-15T17:34:16.589Z,18.10
2018-03-15T17:36:42.777Z,22.58
2018-03-15T17:39:09.614Z,25.17
2018-03-15T17:41:35.703Z,19.35
2018-03-15T17:44:01.810Z,19.27
2018-03-15T17:46:28.653Z,20.02
2018-03-15T17:48:54.870Z,20.50
2018-03-15T17:51:20.994Z,16.70
2018-03-15T17:53:47.069Z,26.37
2018-03-15T17:56:13.264Z,23.58
2018-03-15T17:58:39.366Z,23.23
2018-03-15T18:01:06.205Z,18.95
2018-03-15T18:03:32.317Z,23.80
2018-03-15T18:05:58.418Z,26.23
2018-03-15T18:08:24.530Z,24.60
2018-03-15T18:10:51.503Z,21.20
2018-03-15T18:13:17.690Z,21.00
2018-03-15T18:15:43.824Z,25.23
2018-03-15T18:18:09.954Z,20.98
2018-03-15T18:20:36.106Z,24.70
2018-03-15T18:23:02.226Z,16.58
2018-03-15T18:25:28.375Z,20.92
2018-03-15T18:27:54.510Z,18.52
2018-03-15T18:30:20.598Z,20.17
2018-03-15T18:32:47.481Z,29.98
2018-03-15T18:35:13.661Z,27.20
2018-03-15T18:37:39.817Z,20.67
2018-03-15T18:40:05.910Z,33.40
2018-03-15T18:42:32.000Z,29.92
2018-03-15T18:44:58.101Z,22.77
2018-03-15T18:47:24.240Z,15.63
2018-03-15T18:49:50.377Z,18.10
2018-03-15T18:52:16.468Z,14.50
2018-03-15T18:54:43.330Z,16.85
2018-03-15T18:57:09.442Z,19.50
2018-03-15T18:59:35.681Z,19.87
2018-03-15T19:02:01.774Z,19.60
2018-03-15T19:04:27.904Z,22.30
2018-03-15T19:06:54.069Z,22.35
2018-03-15T19:09:20.914Z,20.70
2018-03-15T19:11:47.034Z,20.88
2018-03-15T19:14:13.228Z,22.05
2018-03-15T19:16:39.581Z,22.55
2018-03-15T19:19:05.729Z,20.12
2018-03-15T19:21:32.621Z,21.33
2018-03-15T19:23:58.809Z,21.55
2018-03-15T19:26:24.885Z,20.33
2018-03-15T19:28:51.003Z,21.85
2018-03-15T19:31:17.894Z,25.00
2018-03-15T19:33:44.067Z,19.60
2018-03-15T19:36:10.190Z,25.05
2018-03-15T19:38:36.305Z,26.17
2018-03-15T19:41:02.629Z,29.73
2018-03-15T19:43:28.793Z,33.22
2018-03-15T19:45:54.904Z,26.48
2018-03-15T19:48:21.730Z,24.42
2018-03-15T19:50:47.879Z,27.10
2018-03-15T19:53:13.986Z,33.20
2018-03-15T19:55:40.086Z,32.35
2018-03-15T19:58:06.135Z,26.27
2018-03-15T20:00:32.320Z,25.20
2018-03-15T20:02:58.430Z,25.42
2018-03-15T20:05:24.488Z,29.48
2018-03-15T20:07:50.605Z,28.45
2018-03-15T20:10:16.710Z,29.95
2018-03-15T20:12:42.885Z,34.80
2018-03-15T20:15:08.941Z,34.55
2018-03-15T20:17:35.050Z,46.28
2018-03-15T20:20:01.106Z,32.42
2018-03-15T20:22:33.333Z,39.65
2018-03-15T20:25:00.156Z,40.72
2018-03-15T20:27:32.430Z,33.95
2018-03-15T20:29:58.527Z,65.80
2018-03-15T20:32:31.685Z,38.70
2018-03-15T20:34:57.738Z,32.25
2018-03-15T20:37:24.573Z,31.62
2018-03-15T20:39:56.877Z,27.33
2018-03-15T20:42:23.102Z,27.87
2018-03-15T20:44:49.183Z,30.80
2018-03-15T20:47:21.312Z,33.50
2018-03-15T20:49:47.372Z,30.58
2018-03-15T20:52:13.497Z,24.95
2018-03-15T20:54:39.638Z,23.33
2018-03-15T20:57:05.755Z,26.33
2018-03-15T20:59:31.897Z,26.92
2018-03-15T21:01:58.051Z,21.80
2018-03-15T21:04:24.105Z,33.15
2018-03-15T21:06:50.198Z,25.35
2018-03-15T21:09:17.023Z,25.67
2018-03-15T21:11:43.074Z,27.20
2018-03-15T21:14:09.894Z,23.90
2018-03-15T21:16:36.814Z,28.15
2018-03-15T21:19:02.902Z,27.87
2018-03-15T21:21:28.978Z,34.92
2018-03-15T21:23:55.074Z,30.62
2018-03-15T21:26:21.873Z,31.02
2018-03-15T21:28:48.012Z,29.20
2018-03-15T21:31:14.070Z,28.25
2018-03-15T21:33:40.201Z,28.12
2018-03-15T21:36:06.279Z,27.05
2018-03-15T21:38:33.170Z,28.85
2018-03-15T21:40:59.361Z,39.95
2018-03-15T21:43:26.198Z,23.85
2018-03-15T21:45:52.294Z,27.50
2018-03-15T21:48:18.587Z,30.12
2018-03-15T21:50:44.774Z,37.10
2018-03-15T21:53:10.890Z,23.08
2018-03-15T21:55:37.740Z,32.47
2018-03-15T21:58:03.833Z,22.87
2018-03-15T22:00:29.910Z,23.05
2018-03-15T22:02:57.125Z,21.27
2018-03-15T22:05:23.256Z,20.55
2018-03-15T22:07:49.427Z,23.17
2018-03-15T22:10:15.605Z,21.73
2018-03-15T22:12:41.741Z,27.65
2018-03-15T22:15:08.628Z,33.92
2018-03-15T22:17:34.776Z,37.58
2018-03-15T22:20:00.933Z,28.92
2018-03-15T22:22:27.089Z,22.75
2018-03-15T22:24:53.344Z,25.40
2018-03-15T22:27:19.482Z,24.08
2018-03-15T22:29:46.361Z,24.80
2018-03-15T22:32:12.508Z,22.98
2018-03-15T22:34:39.594Z,24.77
2018-03-15T22:37:05.701Z,25.10
2018-03-15T22:39:31.857Z,26.90
2018-03-15T22:41:57.980Z,20.15
2018-03-15T22:44:24.124Z,19.58
2018-03-15T22:46:50.247Z,21.48
2018-03-15T22:49:16.406Z,24.98
2018-03-15T22:51:42.601Z,24.35
2018-03-15T22:54:08.725Z,27.85
2018-03-15T22:56:34.876Z,25.10
2018-03-15T22:59:01.033Z,24.70
2018-03-15T23:01:27.933Z,33.30
2018-03-15T23:03:54.088Z,24.25
2018-03-15T23:06:20.216Z,23.77
2018-03-15T23:08:46.369Z,24.37
2018-03-15T23:11:12.487Z,23.60
2018-03-15T23:13:38.625Z,19.85
2018-03-15T23:16:04.765Z,20.65
2018-03-15T23:18:30.940Z,19.40
2018-03-15T23:20:57.056Z,24.67
2018-03-15T23:23:23.205Z,21.42
2018-03-15T23:25:49.351Z,20.98
2018-03-15T23:28:15.478Z,21.37
2018-03-15T23:30:41.623Z,19.30
2018-03-15T23:33:07.764Z,20.37
2018-03-15T23:35:33.905Z,22.98
2018-03-15T23:38:00.024Z,19.45
2018-03-15T23:40:26.119Z,21.75
2018-03-15T23:42:52.308Z,19.80
2018-03-15T23:45:18.407Z,22.23
2018-03-15T23:47:44.528Z,20.33
2018-03-15T23:50:11.396Z,22.92
2018-03-15T23:52:37.489Z,23.85
2018-03-15T23:55:03.620Z,22.62
2018-03-15T23:57:29.720Z,27.62
2018-03-15T23:59:55.840Z,24.10
